createdAt,value
2022-10-02T00:00:16.957Z,100352.34
2022-10-02T00:02:55.992Z,100352.53
2022-10-02T00:05:49.938Z,100345.78
2022-10-02T00:08:24.494Z,100357.47
2022-10-02T00:11:14.988Z,100360.72
2022-10-02T00:13:48.738Z,100364.28
2022-10-02T00:16:24.345Z,100360.25
2022-10-02T00:18:54.335Z,100365.00
2022-10-02T00:21:56.323Z,100357.88
2022-10-02T00:24:27.957Z,100366.00
2022-10-02T00:27:15.463Z,100366.38
2022-10-02T00:29:53.440Z,100363.69
2022-10-02T00:32:38.209Z,100369.94
2022-10-02T00:35:35.300Z,100371.31
2022-10-02T00:38:34.169Z,100383.00
2022-10-02T00:41:28.972Z,100387.59
2022-10-02T00:44:09.986Z,100396.53
2022-10-02T00:46:58.715Z,100407.56
2022-10-02T00:50:03.129Z,100408.59
2022-10-02T00:53:13.335Z,100422.16
2022-10-02T00:56:07.112Z,100419.13
2022-10-02T00:58:58.052Z,100418.94
2022-10-02T01:01:52.523Z,100423.31
2022-10-02T01:04:35.239Z,100424.53
2022-10-02T01:07:05.165Z,100419.78
2022-10-02T01:09:33.479Z,100426.03
2022-10-02T01:12:01.544Z,100430.78
2022-10-02T01:14:40.886Z,100425.56
2022-10-02T01:17:23.972Z,100427.41
2022-10-02T01:19:51.057Z,100439.13
2022-10-02T01:22:26.205Z,100449.09
2022-10-02T01:24:57.993Z,100454.69
2022-10-02T01:27:26.897Z,100470.59
2022-10-02T01:30:07.613Z,100472.47
2022-10-02T01:32:40.700Z,100474.63
2022-10-02T01:35:08.612Z,100471.09
2022-10-02T01:37:38.520Z,100460.44
2022-10-02T01:40:11.551Z,100471.44
2022-10-02T01:42:39.310Z,100477.53
2022-10-02T01:45:09.248Z,100483.13
2022-10-02T01:48:02.154Z,100478.22
2022-10-02T01:51:05.519Z,100472.09
2022-10-02T01:54:05.065Z,100459.25
2022-10-02T01:57:02.915Z,100456.34
2022-10-02T01:59:35.332Z,100466.13
2022-10-02T02:02:30.195Z,100472.91
2022-10-02T02:05:20.647Z,100476.47
2022-10-02T02:08:08.173Z,100476.97
2022-10-02T02:11:12.310Z,100482.22
2022-10-02T02:14:01.103Z,100489.00
2022-10-02T02:16:36.799Z,100492.56
2022-10-02T02:19:20.465Z,100505.28
2022-10-02T02:21:58.779Z,100505.78
2022-10-02T02:24:39.464Z,100508.69
2022-10-02T02:27:07.758Z,100497.66
2022-10-02T02:29:39.029Z,100497.66
2022-10-02T02:32:10.692Z,100501.41
2022-10-02T02:34:47.825Z,100508.84
2022-10-02T02:37:19.415Z,100505.13
2022-10-02T02:39:54.427Z,100510.53
2022-10-02T02:42:26.019Z,100510.25
2022-10-02T02:45:04.194Z,100507.81
2022-10-02T02:47:44.123Z,100514.94
2022-10-02T02:50:17.072Z,100505.63
2022-10-02T02:53:11.821Z,100498.84
2022-10-02T02:56:08.140Z,100501.06
2022-10-02T02:58:41.885Z,100499.00
2022-10-02T03:01:08.758Z,100500.03
2022-10-02T03:03:35.952Z,100504.44
2022-10-02T03:06:20.437Z,100513.53
2022-10-02T03:08:53.199Z,100519.16
2022-10-02T03:11:44.146Z,100514.56
2022-10-02T03:14:32.275Z,100519.16
2022-10-02T03:17:22.333Z,100507.44
2022-10-02T03:20:17.684Z,100522.53
2022-10-02T03:23:03.182Z,100522.03
2022-10-02T03:25:37.715Z,100521.69
2022-10-02T03:28:53.963Z,100535.59
2022-10-02T03:31:19.020Z,100527.28
2022-10-02T03:33:47.561Z,100529.50
2022-10-02T03:36:18.055Z,100530.53
2022-10-02T03:38:53.434Z,100539.84
2022-10-02T03:41:33.653Z,100541.06
2022-10-02T03:44:00.739Z,100537.00
2022-10-02T03:46:27.678Z,100542.75
2022-10-02T03:48:56.701Z,100549.38
2022-10-02T03:51:24.651Z,100558.47
2022-10-02T03:53:52.728Z,100561.38
2022-10-02T03:56:56.571Z,100567.47
2022-10-02T04:00:01.562Z,100564.75
2022-10-02T04:02:43.585Z,100564.94
2022-10-02T04:05:23.126Z,100567.47
2022-10-02T04:07:56.745Z,100579.34
2022-10-02T04:10:41.456Z,100595.94
2022-10-02T04:13:17.180Z,100596.97
2022-10-02T04:16:25.004Z,100603.56
2022-10-02T04:19:01.077Z,100606.44
2022-10-02T04:21:48.417Z,100609.50
2022-10-02T04:24:24.225Z,100603.91
2022-10-02T04:27:00.100Z,100604.06
2022-10-02T04:29:34.307Z,100600.34
2022-10-02T04:32:13.211Z,100605.06
2022-10-02T04:34:40.350Z,100607.47
2022-10-02T04:37:44.855Z,100613.38
2022-10-02T04:40:30.700Z,100614.06
2022-10-02T04:43:50.470Z,100618.78
2022-10-02T04:46:17.396Z,100634.19
2022-10-02T04:49:16.467Z,100633.34
2022-10-02T04:52:04.386Z,100643.69
2022-10-02T04:54:52.562Z,100636.91
2022-10-02T04:57:33.276Z,100639.63
2022-10-02T05:00:22.227Z,100636.41
2022-10-02T05:03:46.684Z,100643.03
2022-10-02T05:06:16.423Z,100652.13
2022-10-02T05:08:58.604Z,100662.97
2022-10-02T05:11:40.492Z,100664.31
2022-10-02T05:14:31.168Z,100674.63
2022-10-02T05:17:13.072Z,100679.38
2022-10-02T05:20:50.521Z,100684.59
2022-10-02T05:23:37.431Z,100684.09
2022-10-02T05:26:29.851Z,100677.47
2022-10-02T05:29:28.065Z,100679.34
2022-10-02T05:32:22.031Z,100686.25
2022-10-02T05:35:37.401Z,100695.72
2022-10-02T05:38:22.926Z,100698.75
2022-10-02T05:41:03.720Z,100705.03
2022-10-02T05:43:56.568Z,100712.13
2022-10-02T05:46:27.247Z,100707.25
2022-10-02T05:49:15.186Z,100713.47
2022-10-02T05:51:59.809Z,100711.66
2022-10-02T05:54:45.809Z,100713.00
2022-10-02T05:57:38.788Z,100713.84
2022-10-02T06:00:27.089Z,100716.72
2022-10-02T06:03:12.595Z,100714.69
2022-10-02T06:06:03.474Z,100711.81
2022-10-02T06:08:41.596Z,100722.13
2022-10-02T06:11:33.999Z,100723.78
2022-10-02T06:14:26.927Z,100726.50
2022-10-02T06:17:10.809Z,100734.28
2022-10-02T06:19:46.076Z,100725.47
2022-10-02T06:22:15.532Z,100734.28
2022-10-02T06:25:04.808Z,100743.56
2022-10-02T06:27:55.834Z,100736.94
2022-10-02T06:30:22.672Z,100743.22
2022-10-02T06:32:56.344Z,100745.72
2022-10-02T06:35:38.299Z,100753.53
2022-10-02T06:38:27.546Z,100760.81
2022-10-02T06:41:34.698Z,100751.16
2022-10-02T06:44:17.536Z,100765.72
2022-10-02T06:47:47.717Z,100770.44
2022-10-02T06:50:20.357Z,100768.28
2022-10-02T06:52:53.490Z,100762.03
2022-10-02T06:55:45.817Z,100766.41
2022-10-02T06:58:25.157Z,100770.66
2022-10-02T07:01:27.447Z,100780.63
2022-10-02T07:04:42.523Z,100795.84
2022-10-02T07:07:37.816Z,100791.13
2022-10-02T07:10:23.173Z,100799.94
2022-10-02T07:13:57.269Z,100800.44
2022-10-02T07:16:54.993Z,100795.25
2022-10-02T07:20:29.677Z,100805.06
2022-10-02T07:23:13.631Z,100819.94
2022-10-02T07:26:19.013Z,100822.50
2022-10-02T07:29:03.759Z,100829.44
2022-10-02T07:31:42.364Z,100847.22
2022-10-02T07:34:30.388Z,100845.22
2022-10-02T07:37:48.126Z,100845.72
2022-10-02T07:40:52.055Z,100845.22
2022-10-02T07:43:42.982Z,100855.06
2022-10-02T07:46:40.149Z,100856.13
2022-10-02T07:49:37.561Z,100854.63
2022-10-02T07:52:16.392Z,100866.97
2022-10-02T07:55:10.067Z,100871.56
2022-10-02T07:57:52.434Z,100885.41
2022-10-02T08:00:24.221Z,100884.41
2022-10-02T08:03:22.260Z,100885.09
2022-10-02T08:05:56.687Z,100888.09
2022-10-02T08:08:45.753Z,100892.03
2022-10-02T08:11:40.450Z,100897.59
2022-10-02T08:14:10.260Z,100900.44
2022-10-02T08:16:43.342Z,100910.91
2022-10-02T08:19:40.304Z,100906.06
2022-10-02T08:22:29.717Z,100912.72
2022-10-02T08:25:04.685Z,100911.97
2022-10-02T08:28:02.272Z,100912.63
2022-10-02T08:30:29.245Z,100923.09
2022-10-02T08:32:56.884Z,100927.47
2022-10-02T08:36:01.498Z,100930.44
2022-10-02T08:38:54.601Z,100941.03
2022-10-02T08:41:49.587Z,100942.09
2022-10-02T08:44:52.476Z,100942.84
2022-10-02T08:48:23.701Z,100952.81
2022-10-02T08:51:12.252Z,100946.25
2022-10-02T08:54:24.374Z,100940.72
2022-10-02T08:57:44.700Z,100949.53
2022-10-02T09:00:22.253Z,100953.69
2022-10-02T09:03:27.764Z,100966.84
2022-10-02T09:06:16.495Z,100971.53
2022-10-02T09:09:21.384Z,100969.88
2022-10-02T09:12:04.222Z,100976.28
2022-10-02T09:14:58.057Z,100972.84
2022-10-02T09:18:14.932Z,100972.84
2022-10-02T09:20:51.490Z,100981.25
2022-10-02T09:23:45.378Z,100985.16
2022-10-02T09:26:41.385Z,100991.28
2022-10-02T09:29:36.916Z,100985.16
2022-10-02T09:32:09.712Z,100996.25
2022-10-02T09:35:02.236Z,101001.03
2022-10-02T09:37:54.037Z,100994.75
2022-10-02T09:40:59.647Z,101006.69
2022-10-02T09:43:49.084Z,101001.25
2022-10-02T09:46:47.434Z,101005.94
2022-10-02T09:49:14.473Z,101014.78
2022-10-02T09:52:28.671Z,101012.88
2022-10-02T09:56:02.853Z,101011.13
2022-10-02T09:58:57.775Z,101012.72
2022-10-02T10:02:02.364Z,101016.88
2022-10-02T10:05:08.942Z,101015.75
2022-10-02T10:08:14.720Z,101020.06
2022-10-02T10:11:20.667Z,101031.25
2022-10-02T10:14:30.696Z,101039.75
2022-10-02T10:17:21.617Z,101036.63
2022-10-02T10:20:25.893Z,101038.78
2022-10-02T10:23:21.080Z,101038.22
2022-10-02T10:26:18.685Z,101045.38
2022-10-02T10:28:51.302Z,101052.47
2022-10-02T10:31:36.917Z,101048.59
2022-10-02T10:35:27.072Z,101058.28
2022-10-02T10:38:33.416Z,101059.09
2022-10-02T10:41:37.537Z,101061.50
2022-10-02T10:44:52.599Z,101055.22
2022-10-02T10:47:47.129Z,101070.47
2022-10-02T10:50:24.606Z,101076.13
2022-10-02T10:53:39.298Z,101072.94
2022-10-02T10:56:28.171Z,101075.47
2022-10-02T10:59:07.957Z,101073.28
2022-10-02T11:02:03.869Z,101080.31
2022-10-02T11:05:09.737Z,101084.91
2022-10-02T11:08:18.227Z,101088.97
2022-10-02T11:11:20.438Z,101105.56
2022-10-02T11:14:19.823Z,101096.31
2022-10-02T11:16:55.420Z,101099.63
2022-10-02T11:20:05.832Z,101100.47
2022-10-02T11:23:09.164Z,101107.69
2022-10-02T11:26:06.324Z,101113.22
2022-10-02T11:29:11.572Z,101118.00
2022-10-02T11:31:59.833Z,101124.84
2022-10-02T11:35:10.124Z,101128.50
2022-10-02T11:38:04.026Z,101125.59
2022-10-02T11:40:38.336Z,101125.06
2022-10-02T11:43:30.136Z,101131.44
2022-10-02T11:46:37.404Z,101147.31
2022-10-02T11:49:26.570Z,101146.69
2022-10-02T11:52:22.520Z,101150.31
2022-10-02T11:54:56.391Z,101156.59
2022-10-02T11:57:50.553Z,101153.03
2022-10-02T12:00:42.690Z,101155.69
2022-10-02T12:03:26.184Z,101156.47
2022-10-02T12:06:05.773Z,101172.88
2022-10-02T12:09:22.449Z,101171.69
2022-10-02T12:12:04.328Z,101168.06
2022-10-02T12:15:00.460Z,101176.50
2022-10-02T12:17:39.607Z,101173.19
2022-10-02T12:20:40.812Z,101173.84
2022-10-02T12:23:40.256Z,101186.69
2022-10-02T12:26:59.248Z,101183.03
2022-10-02T12:29:49.713Z,101197.72
2022-10-02T12:32:40.993Z,101193.69
2022-10-02T12:35:40.758Z,101209.28
2022-10-02T12:38:32.481Z,101206.41
2022-10-02T12:41:20.966Z,101206.50
2022-10-02T12:44:25.445Z,101211.63
2022-10-02T12:47:21.209Z,101213.34
2022-10-02T12:50:23.954Z,101222.66
2022-10-02T12:53:29.300Z,101221.38
2022-10-02T12:56:02.152Z,101228.50
2022-10-02T12:58:56.779Z,101237.06
2022-10-02T13:02:04.838Z,101237.59
2022-10-02T13:04:58.158Z,101248.03
2022-10-02T13:08:05.580Z,101250.41
2022-10-02T13:11:06.437Z,101245.63
2022-10-02T13:13:54.500Z,101252.56
2022-10-02T13:16:46.844Z,101257.13
2022-10-02T13:19:30.621Z,101260.13
2022-10-02T13:22:31.566Z,101258.81
2022-10-02T13:25:20.007Z,101259.72
2022-10-02T13:28:22.868Z,101261.66
2022-10-02T13:31:36.866Z,101265.59
2022-10-02T13:34:26.923Z,101270.94
2022-10-02T13:37:38.499Z,101277.25
2022-10-02T13:40:17.957Z,101278.13
2022-10-02T13:43:12.984Z,101279.31
2022-10-02T13:45:50.059Z,101273.75
2022-10-02T13:48:48.805Z,101278.34
2022-10-02T13:51:44.248Z,101269.16
2022-10-02T13:54:32.219Z,101277.66
2022-10-02T13:57:01.807Z,101284.63
2022-10-02T13:59:51.680Z,101288.59
2022-10-02T14:02:38.035Z,101291.66
2022-10-02T14:05:57.088Z,101290.63
2022-10-02T14:09:11.161Z,101295.03
2022-10-02T14:12:31.032Z,101292.94
2022-10-02T14:15:31.041Z,101285.72
2022-10-02T14:18:38.054Z,101288.25
2022-10-02T14:21:24.153Z,101288.63
2022-10-02T14:24:18.526Z,101287.69
2022-10-02T14:27:42.180Z,101290.91
2022-10-02T14:30:19.596Z,101293.72
2022-10-02T14:33:21.037Z,101296.91
2022-10-02T14:36:07.487Z,101295.88
2022-10-02T14:38:49.551Z,101306.91
2022-10-02T14:41:40.637Z,101316.41
2022-10-02T14:44:45.403Z,101309.22
2022-10-02T14:47:33.807Z,101311.63
2022-10-02T14:50:44.220Z,101312.94
2022-10-02T14:53:46.367Z,101310.94
2022-10-02T14:56:37.998Z,101314.78
2022-10-02T14:59:11.102Z,101316.53
2022-10-02T15:01:59.690Z,101322.84
2022-10-02T15:04:44.752Z,101314.44
2022-10-02T15:07:15.790Z,101325.41
2022-10-02T15:10:16.000Z,101319.41
2022-10-02T15:13:08.054Z,101328.19
2022-10-02T15:16:09.927Z,101318.13
2022-10-02T15:19:22.339Z,101327.50
2022-10-02T15:22:02.916Z,101324.34
2022-10-02T15:24:34.475Z,101320.31
2022-10-02T15:27:20.913Z,101321.75
2022-10-02T15:29:53.737Z,101332.22
2022-10-02T15:32:51.245Z,101326.69
2022-10-02T15:35:39.221Z,101340.09
2022-10-02T15:38:15.385Z,101343.47
2022-10-02T15:40:57.932Z,101345.84
2022-10-02T15:44:00.975Z,101357.16
2022-10-02T15:46:42.609Z,101361.84
2022-10-02T15:49:24.401Z,101366.28
2022-10-02T15:52:11.077Z,101372.59
2022-10-02T15:55:00.882Z,101373.06
2022-10-02T15:57:55.272Z,101382.03
2022-10-02T16:00:23.553Z,101375.81
2022-10-02T16:03:19.600Z,101378.00
2022-10-02T16:06:07.553Z,101382.13
2022-10-02T16:08:55.561Z,101374.16
2022-10-02T16:11:37.793Z,101379.53
2022-10-02T16:14:46.598Z,101387.84
2022-10-02T16:17:13.334Z,101389.22
2022-10-02T16:20:04.210Z,101385.13
2022-10-02T16:22:58.225Z,101378.19
2022-10-02T16:25:32.216Z,101373.78
2022-10-02T16:28:12.528Z,101384.41
2022-10-02T16:31:07.923Z,101379.03
2022-10-02T16:33:59.388Z,101379.19
2022-10-02T16:36:30.355Z,101373.91
2022-10-02T16:39:33.933Z,101374.34
2022-10-02T16:42:31.473Z,101376.88
2022-10-02T16:45:20.749Z,101388.53
2022-10-02T16:48:10.342Z,101406.66
2022-10-02T16:51:31.176Z,101408.22
2022-10-02T16:54:20.897Z,101411.38
2022-10-02T16:57:18.687Z,101420.63
2022-10-02T16:59:53.285Z,101425.28
2022-10-02T17:02:29.115Z,101438.94
2022-10-02T17:05:27.371Z,101444.81
2022-10-02T17:08:58.740Z,101448.41
2022-10-02T17:11:55.040Z,101456.31
2022-10-02T17:15:05.658Z,101451.75
2022-10-02T17:17:55.513Z,101444.78
2022-10-02T17:20:53.743Z,101428.63
2022-10-02T17:24:00.906Z,101435.78
2022-10-02T17:26:43.827Z,101437.50
2022-10-02T17:29:28.201Z,101451.34
2022-10-02T17:31:58.793Z,101459.16
2022-10-02T17:34:49.336Z,101459.53
2022-10-02T17:37:21.047Z,101454.75
2022-10-02T17:40:17.217Z,101467.84
2022-10-02T17:43:14.332Z,101478.88
2022-10-02T17:46:43.204Z,101479.06
2022-10-02T17:49:34.382Z,101481.25
2022-10-02T17:52:40.970Z,101494.66
2022-10-02T17:56:01.120Z,101498.75
2022-10-02T17:58:44.085Z,101506.88
2022-10-02T18:01:41.799Z,101517.03
2022-10-02T18:04:20.302Z,101517.72
2022-10-02T18:07:05.315Z,101528.19
2022-10-02T18:09:58.854Z,101531.72
2022-10-02T18:13:33.240Z,101536.09
2022-10-02T18:16:50.918Z,101536.53
2022-10-02T18:19:25.146Z,101541.41
2022-10-02T18:22:48.715Z,101549.78
2022-10-02T18:25:51.361Z,101560.06
2022-10-02T18:28:43.567Z,101557.25
2022-10-02T18:31:55.430Z,101563.66
2022-10-02T18:34:53.637Z,101555.44
2022-10-02T18:38:02.636Z,101556.38
2022-10-02T18:41:28.230Z,101564.44
2022-10-02T18:44:09.969Z,101554.91
2022-10-02T18:46:55.416Z,101555.53
2022-10-02T18:49:47.127Z,101566.91
2022-10-02T18:52:47.528Z,101560.78
2022-10-02T18:55:45.383Z,101576.13
2022-10-02T18:58:31.828Z,101583.00
2022-10-02T19:01:16.430Z,101594.47
2022-10-02T19:04:09.648Z,101607.78
2022-10-02T19:06:53.567Z,101621.09
2022-10-02T19:09:27.869Z,101619.84
2022-10-02T19:12:05.403Z,101622.97
2022-10-02T19:14:45.665Z,101622.88
2022-10-02T19:17:27.901Z,101625.03
2022-10-02T19:19:55.964Z,101612.63
2022-10-02T19:22:36.404Z,101619.22
2022-10-02T19:25:16.220Z,101621.06
2022-10-02T19:27:50.359Z,101629.06
2022-10-02T19:30:27.828Z,101630.38
2022-10-02T19:33:03.284Z,101627.22
2022-10-02T19:35:42.666Z,101624.97
2022-10-02T19:38:13.803Z,101619.69
2022-10-02T19:40:41.653Z,101619.25
2022-10-02T19:43:29.669Z,101612.44
2022-10-02T19:46:01.892Z,101611.88
2022-10-02T19:48:31.857Z,101616.72
2022-10-02T19:51:01.637Z,101611.03
2022-10-02T19:53:34.323Z,101614.88
2022-10-02T19:56:07.313Z,101620.75
2022-10-02T19:58:51.317Z,101624.88
2022-10-02T20:01:27.661Z,101628.88
2022-10-02T20:04:01.793Z,101628.44
2022-10-02T20:06:34.849Z,101632.44
2022-10-02T20:09:12.104Z,101642.84
2022-10-02T20:11:59.614Z,101643.41
2022-10-02T20:14:37.504Z,101644.13
2022-10-02T20:17:10.600Z,101655.53
2022-10-02T20:19:51.937Z,101652.25
2022-10-02T20:23:01.912Z,101660.06
2022-10-02T20:25:44.987Z,101667.47
2022-10-02T20:29:05.915Z,101680.84
2022-10-02T20:31:50.967Z,101688.38
2022-10-02T20:34:29.542Z,101681.25
2022-10-02T20:37:06.462Z,101681.09
2022-10-02T20:39:40.547Z,101684.38
2022-10-02T20:42:26.502Z,101673.38
2022-10-02T20:44:54.669Z,101674.78
2022-10-02T20:48:17.274Z,101673.06
2022-10-02T20:50:57.624Z,101680.19
2022-10-02T20:54:03.625Z,101680.72
2022-10-02T20:56:45.559Z,101682.00
2022-10-02T20:59:27.315Z,101683.56
2022-10-02T21:02:28.150Z,101689.41
2022-10-02T21:05:16.065Z,101679.28
2022-10-02T21:08:28.161Z,101688.06
2022-10-02T21:11:46.722Z,101692.28
2022-10-02T21:14:22.878Z,101691.28
2022-10-02T21:17:07.140Z,101681.72
2022-10-02T21:20:50.236Z,101698.09
2022-10-02T21:23:39.034Z,101707.31
2022-10-02T21:26:35.894Z,101699.75
2022-10-02T21:29:29.132Z,101705.53
2022-10-02T21:32:24.885Z,101701.88
2022-10-02T21:35:34.281Z,101708.66
2022-10-02T21:38:16.766Z,101710.66
2022-10-02T21:41:19.601Z,101694.94
2022-10-02T21:44:40.387Z,101700.34
2022-10-02T21:47:43.888Z,101703.69
2022-10-02T21:50:38.517Z,101690.72
2022-10-02T21:53:26.729Z,101698.81
2022-10-02T21:56:52.681Z,101692.81
2022-10-02T21:59:39.009Z,101695.50
2022-10-02T22:02:18.907Z,101689.50
2022-10-02T22:05:19.330Z,101706.72
2022-10-02T22:08:23.823Z,101700.47
2022-10-02T22:11:38.876Z,101711.19
2022-10-02T22:14:12.901Z,101720.16
2022-10-02T22:17:09.449Z,101708.03
2022-10-02T22:20:08.873Z,101713.09
2022-10-02T22:23:12.559Z,101713.81
2022-10-02T22:25:39.272Z,101718.88
2022-10-02T22:28:56.990Z,101724.94
2022-10-02T22:31:51.600Z,101731.28
2022-10-02T22:34:29.004Z,101719.53
2022-10-02T22:37:36.357Z,101705.66
2022-10-02T22:40:08.588Z,101696.97
2022-10-02T22:42:46.128Z,101698.94
2022-10-02T22:45:22.071Z,101713.69
2022-10-02T22:48:00.214Z,101711.72
2022-10-02T22:50:33.051Z,101704.38
2022-10-02T22:53:07.382Z,101702.19
2022-10-02T22:55:49.206Z,101711.53
2022-10-02T22:58:33.939Z,101711.03
2022-10-02T23:01:14.746Z,101705.66
2022-10-02T23:03:58.449Z,101700.50
2022-10-02T23:06:44.546Z,101702.22
2022-10-02T23:09:38.210Z,101708.88
2022-10-02T23:12:23.339Z,101711.56
2022-10-02T23:15:42.017Z,101705.69
2022-10-02T23:18:20.885Z,101694.78
2022-10-02T23:21:02.719Z,101699.78
2022-10-02T23:24:02.535Z,101700.53
2022-10-02T23:26:42.837Z,101705.06
2022-10-02T23:29:39.617Z,101697.59
2022-10-02T23:32:31.771Z,101709.75
2022-10-02T23:35:38.907Z,101720.28
2022-10-02T23:38:53.088Z,101717.47
2022-10-02T23:41:39.620Z,101717.72
2022-10-02T23:44:43.273Z,101709.41
2022-10-02T23:47:42.940Z,101719.56
2022-10-02T23:50:25.904Z,101720.41
2022-10-02T23:53:27.577Z,101713.28
2022-10-02T23:55:54.542Z,101715.25
2022-10-02T23:59:04.498Z,101709.13
